TimeCDT,TemperatureF,Dew PointF,Humidity,Sea Level PressureIn,VisibilityMPH,Wind Direction,Wind SpeedMPH,Gust SpeedMPH,PrecipitationIn,Events,Conditions,WindDirDegrees,DateUTC
12:14 AM,39.2,35.6,87,29.97,10.0,ENE,3.5,-,N/A,Rain,Light Rain,60,2014-05-07 05:14:00
12:35 AM,39.2,35.6,87,29.97,7.0,East,5.8,-,N/A,Rain,Light Rain,80,2014-05-07 05:35:00
12:55 AM,39.2,35.6,87,29.97,10.0,East,3.5,-,N/A,,Mostly Cloudy,80,2014-05-07 05:55:00
1:15 AM,37.4,35.6,93,29.96,10.0,ENE,5.8,-,N/A,,Overcast,70,2014-05-07 06:15:00
1:34 AM,37.4,35.6,93,29.96,10.0,East,4.6,-,N/A,Rain,Light Rain,80,2014-05-07 06:34:00
1:55 AM,37.4,35.6,93,29.96,7.0,ENE,3.5,-,0.01,Rain,Light Rain,60,2014-05-07 06:55:00
2:15 AM,37.4,35.6,93,29.97,10.0,Calm,Calm,-,N/A,Rain,Light Rain,0,2014-05-07 07:15:00
2:34 AM,37.4,35.6,93,29.96,10.0,Calm,Calm,-,N/A,,Overcast,0,2014-05-07 07:34:00
2:55 AM,37.4,35.6,93,29.95,10.0,ENE,4.6,-,N/A,Rain,Light Rain,70,2014-05-07 07:55:00
3:15 AM,37.4,35.6,93,29.95,10.0,ENE,4.6,-,N/A,,Mostly Cloudy,60,2014-05-07 08:15:00
3:34 AM,37.4,35.6,93,29.94,10.0,ENE,5.8,-,N/A,,Overcast,70,2014-05-07 08:34:00
3:55 AM,37.4,35.6,93,29.94,10.0,East,4.6,-,N/A,,Overcast,80,2014-05-07 08:55:00
4:15 AM,37.4,35.6,93,29.94,10.0,East,4.6,-,N/A,,Overcast,80,2014-05-07 09:15:00
4:34 AM,37.4,35.6,93,29.95,10.0,Calm,Calm,-,N/A,,Overcast,0,2014-05-07 09:34:00
4:55 AM,37.4,35.6,93,29.95,10.0,NE,3.5,-,N/A,,Overcast,50,2014-05-07 09:55:00
5:15 AM,37.4,35.6,93,29.94,10.0,ENE,3.5,-,N/A,,Overcast,70,2014-05-07 10:15:00
5:34 AM,37.4,33.8,87,29.94,10.0,East,3.5,-,N/A,,Mostly Cloudy,80,2014-05-07 10:34:00
5:55 AM,35.6,33.8,93,29.93,10.0,East,3.5,-,N/A,,Clear,80,2014-05-07 10:55:00
6:14 AM,35.6,33.8,93,29.93,10.0,Calm,Calm,-,N/A,,Clear,0,2014-05-07 11:14:00
6:35 AM,35.6,33.8,93,29.93,10.0,NE,3.5,-,N/A,,Clear,50,2014-05-07 11:35:00
6:54 AM,37.4,33.8,87,29.94,10.0,East,3.5,-,N/A,,Clear,80,2014-05-07 11:54:00
7:15 AM,37.4,35.6,93,29.94,10.0,East,4.6,-,N/A,,Clear,80,2014-05-07 12:15:00
7:35 AM,39.2,35.6,87,29.94,10.0,Calm,Calm,-,N/A,,Clear,0,2014-05-07 12:35:00
7:54 AM,41.0,35.6,81,29.94,10.0,East,6.9,-,N/A,,Clear,80,2014-05-07 12:54:00
8:15 AM,42.8,33.8,70,29.95,10.0,East,4.6,-,N/A,,Scattered Clouds,100,2014-05-07 13:15:00
8:34 AM,44.6,33.8,66,29.94,10.0,East,6.9,-,N/A,,Mostly Cloudy,90,2014-05-07 13:34:00
8:55 AM,44.6,33.8,66,29.93,10.0,East,4.6,-,N/A,,Scattered Clouds,100,2014-05-07 13:55:00
9:14 AM,48.2,35.6,62,29.92,10.0,East,6.9,-,N/A,,Scattered Clouds,100,2014-05-07 14:14:00
9:34 AM,48.2,35.6,62,29.92,10.0,ESE,4.6,-,N/A,,Mostly Cloudy,110,2014-05-07 14:34:00
9:55 AM,48.2,35.6,62,29.92,10.0,East,8.1,-,N/A,,Overcast,90,2014-05-07 14:55:00
10:15 AM,48.2,35.6,62,29.91,10.0,East,6.9,-,N/A,,Overcast,100,2014-05-07 15:15:00
10:35 AM,51.8,35.6,54,29.90,10.0,East,6.9,-,N/A,,Overcast,100,2014-05-07 15:35:00
10:53 AM,51.8,37.4,58,29.90,10.0,East,9.2,-,N/A,,Mostly Cloudy,80,2014-05-07 15:53:00
11:15 AM,53.6,37.4,54,29.90,10.0,East,8.1,-,N/A,,Overcast,90,2014-05-07 16:15:00
11:34 AM,53.6,37.4,54,29.89,10.0,East,10.4,-,N/A,,Overcast,80,2014-05-07 16:34:00
12:14 PM,57.2,39.2,51,29.87,10.0,East,9.2,-,N/A,,Scattered Clouds,80,2014-05-07 17:14:00
12:35 PM,59.0,39.2,48,29.86,10.0,ESE,10.4,18.4,N/A,,Clear,110,2014-05-07 17:35:00
1:15 PM,60.8,39.2,45,29.85,10.0,ESE,8.1,16.1,N/A,,Clear,110,2014-05-07 18:15:00
1:35 PM,62.6,39.2,42,29.85,10.0,East,9.2,17.3,N/A,,Clear,100,2014-05-07 18:35:00
1:54 PM,62.6,39.2,42,29.84,10.0,ESE,11.5,23.0,N/A,,Clear,110,2014-05-07 18:54:00
2:15 PM,62.6,39.2,42,29.84,10.0,ESE,9.2,19.6,N/A,,Clear,110,2014-05-07 19:15:00
2:34 PM,62.6,41.0,45,29.83,10.0,East,11.5,23.0,N/A,,Clear,90,2014-05-07 19:34:00
2:55 PM,64.4,42.8,45,29.83,10.0,East,13.8,24.2,N/A,,Mostly Cloudy,100,2014-05-07 19:55:00
3:15 PM,64.4,41.0,42,29.83,10.0,ESE,9.2,23.0,N/A,,Mostly Cloudy,120,2014-05-07 20:15:00
3:34 PM,62.6,42.8,48,29.83,10.0,ESE,6.9,-,N/A,,Mostly Cloudy,110,2014-05-07 20:34:00
3:55 PM,60.8,41.0,48,29.83,10.0,ESE,9.2,-,N/A,,Mostly Cloudy,110,2014-05-07 20:55:00
4:15 PM,62.6,41.0,45,29.81,10.0,ESE,10.4,-,N/A,,Scattered Clouds,110,2014-05-07 21:15:00
4:34 PM,62.6,41.0,45,29.81,10.0,East,9.2,24.2,N/A,,Scattered Clouds,100,2014-05-07 21:34:00
4:55 PM,60.8,39.2,45,29.79,10.0,East,6.9,17.3,N/A,,Clear,90,2014-05-07 21:55:00
5:15 PM,59.0,39.2,48,29.77,10.0,ESE,11.5,17.3,N/A,,Clear,110,2014-05-07 22:15:00
5:34 PM,59.0,37.4,45,29.78,10.0,ESE,10.4,20.7,N/A,,Clear,110,2014-05-07 22:34:00
5:55 PM,57.2,37.4,48,29.76,10.0,East,8.1,17.3,N/A,,Clear,100,2014-05-07 22:55:00
6:15 PM,55.4,35.6,47,29.78,10.0,ESE,12.7,23.0,N/A,,Clear,110,2014-05-07 23:15:00
6:34 PM,55.4,35.6,47,29.86,10.0,SSE,10.4,-,N/A,Thunderstorm,Scattered Clouds,160,2014-05-07 23:34:00
6:55 PM,48.2,41.0,76,29.83,5.0,ESE,4.6,-,0.02,Rain-Thunderstorm,Rain,120,2014-05-07 23:55:00
7:15 PM,46.4,42.8,87,29.83,10.0,ESE,8.1,-,0.02,Rain-Thunderstorm,Rain,110,2014-05-08 00:15:00
7:34 PM,46.4,42.8,87,29.84,3.0,Calm,Calm,-,0.02,Rain-Thunderstorm,Thunderstorms and Rain,0,2014-05-08 00:34:00
7:55 PM,46.4,42.8,87,29.84,10.0,East,4.6,-,0.02,Rain,Light Rain,100,2014-05-08 00:55:00
8:14 PM,44.6,42.8,93,29.84,10.0,ESE,3.5,-,N/A,Rain-Thunderstorm,Light Thunderstorms and Rain,110,2014-05-08 01:14:00
8:35 PM,44.6,41.0,87,29.81,10.0,East,8.1,-,0.01,Rain,Rain,100,2014-05-08 01:35:00
8:54 PM,44.6,41.0,87,29.78,10.0,East,9.2,-,0.03,Rain,Rain,80,2014-05-08 01:54:00
9:14 PM,42.8,41.0,93,29.67,10.0,East,11.5,25.3,0.03,Rain,Light Rain,90,2014-05-08 02:14:00
9:35 PM,44.6,42.8,93,29.83,10.0,West,18.4,29.9,0.03,,Mostly Cloudy,260,2014-05-08 02:35:00
9:55 PM,44.6,42.8,93,29.82,10.0,WSW,5.8,-,0.03,,Overcast,250,2014-05-08 02:55:00
10:14 PM,44.6,42.8,93,29.82,10.0,NW,4.6,-,N/A,Thunderstorm,Mostly Cloudy,320,2014-05-08 03:14:00
10:35 PM,42.8,42.8,100,29.83,10.0,Calm,Calm,-,N/A,,Scattered Clouds,0,2014-05-08 03:35:00
10:54 PM,42.8,42.8,100,29.83,10.0,Calm,Calm,-,N/A,,Scattered Clouds,0,2014-05-08 03:54:00
11:15 PM,42.8,42.8,100,29.81,10.0,NE,3.5,-,N/A,,Scattered Clouds,40,2014-05-08 04:15:00
11:35 PM,42.8,41.0,93,29.83,7.0,Calm,Calm,-,N/A,,Mostly Cloudy,0,2014-05-08 04:35:00
11:55 PM,42.8,41.0,93,29.82,10.0,Calm,Calm,-,N/A,,Scattered Clouds,0,2014-05-08 04:55:00